sensor_id;sensor_type;location;lat;lon;timestamp;pressure;altitude;pressure_sealevel;temperature;humidity
30463;BME280;17256;43.618;25.336;2023-05-08T00:00:07;100646.13;;;13.72;100.00
30463;BME280;17256;43.618;25.336;2023-05-08T00:12:27;100425.09;;;12.39;100.00
30463;BME280;17256;43.618;25.336;2023-05-08T00:14:53;100540.91;;;12.97;100.00
30463;BME280;17256;43.618;25.336;2023-05-08T00:17:20;100518.88;;;12.90;100.00
30463;BME280;17256;43.618;25.336;2023-05-08T00:19:46;100440.75;;;12.52;100.00
30463;BME280;17256;43.618;25.336;2023-05-08T00:25:03;100457.06;;;12.53;100.00
30463;BME280;17256;43.618;25.336;2023-05-08T00:37:23;100474.47;;;12.34;100.00
30463;BME280;17256;43.618;25.336;2023-05-08T00:46:01;100339.91;;;11.47;100.00
30463;BME280;17256;43.618;25.336;2023-05-08T00:49:10;100428.13;;;12.18;100.00
30463;BME280;17256;43.618;25.336;2023-05-08T00:52:07;100757.28;;;13.99;100.00
30463;BME280;17256;43.618;25.336;2023-05-08T01:01:49;100525.91;;;12.73;100.00
30463;BME280;17256;43.618;25.336;2023-05-08T01:07:04;100469.03;;;12.85;100.00
30463;BME280;17256;43.618;25.336;2023-05-08T01:09:32;100309.84;;;11.91;100.00
30463;BME280;17256;43.618;25.336;2023-05-08T01:29:22;100750.69;;;14.51;100.00
30463;BME280;17256;43.618;25.336;2023-05-08T01:32:13;100371.81;;;12.07;100.00
30463;BME280;17256;43.618;25.336;2023-05-08T01:37:28;100572.28;;;12.96;100.00
30463;BME280;17256;43.618;25.336;2023-05-08T01:40:04;100746.72;;;13.89;100.00
30463;BME280;17256;43.618;25.336;2023-05-08T01:45:04;100529.56;;;12.41;100.00
30463;BME280;17256;43.618;25.336;2023-05-08T01:47:46;100281.75;;;11.17;100.00
30463;BME280;17256;43.618;25.336;2023-05-08T01:50:26;100496.47;;;12.54;100.00
30463;BME280;17256;43.618;25.336;2023-05-08T01:53:02;100567.59;;;13.03;100.00
30463;BME280;17256;43.618;25.336;2023-05-08T01:55:36;100295.88;;;11.40;100.00
30463;BME280;17256;43.618;25.336;2023-05-08T01:58:10;100563.59;;;12.99;100.00
30463;BME280;17256;43.618;25.336;2023-05-08T02:03:59;100716.72;;;13.99;100.00
30463;BME280;17256;43.618;25.336;2023-05-08T02:29:09;100452.00;;;12.37;100.00
30463;BME280;17256;43.618;25.336;2023-05-08T02:31:35;100609.56;;;13.25;100.00
30463;BME280;17256;43.618;25.336;2023-05-08T02:34:02;100519.13;;;12.69;100.00
30463;BME280;17256;43.618;25.336;2023-05-08T02:36:30;100436.16;;;12.13;100.00
30463;BME280;17256;43.618;25.336;2023-05-08T02:38:58;100491.84;;;12.48;100.00
30463;BME280;17256;43.618;25.336;2023-05-08T02:41:28;100345.38;;;11.66;100.00
30463;BME280;17256;43.618;25.336;2023-05-08T02:43:55;100465.78;;;12.30;100.00
30463;BME280;17256;43.618;25.336;2023-05-08T02:46:34;100564.03;;;12.96;100.00
30463;BME280;17256;43.618;25.336;2023-05-08T02:49:11;100563.19;;;12.89;100.00
30463;BME280;17256;43.618;25.336;2023-05-08T02:51:53;100749.84;;;13.99;100.00
30463;BME280;17256;43.618;25.336;2023-05-08T02:54:34;100356.78;;;11.63;100.00
30463;BME280;17256;43.618;25.336;2023-05-08T02:57:09;100693.44;;;13.75;100.00
30463;BME280;17256;43.618;25.336;2023-05-08T02:59:44;100330.56;;;11.61;100.00
30463;BME280;17256;43.618;25.336;2023-05-08T03:02:23;100644.94;;;13.48;100.00
30463;BME280;17256;43.618;25.336;2023-05-08T03:05:12;100533.50;;;12.91;100.00
30463;BME280;17256;43.618;25.336;2023-05-08T03:07:40;100667.78;;;13.68;100.00
30463;BME280;17256;43.618;25.336;2023-05-08T03:33:31;100827.75;;;14.14;100.00
30463;BME280;17256;43.618;25.336;2023-05-08T03:35:59;100536.97;;;12.53;100.00
30463;BME280;17256;43.618;25.336;2023-05-08T03:46:54;100604.13;;;12.79;100.00
30463;BME280;17256;43.618;25.336;2023-05-08T03:49:22;100558.38;;;12.45;100.00
30463;BME280;17256;43.618;25.336;2023-05-08T03:51:55;100560.28;;;12.31;100.00
30463;BME280;17256;43.618;25.336;2023-05-08T03:54:21;100478.47;;;11.72;100.00
30463;BME280;17256;43.618;25.336;2023-05-08T03:56:52;100822.88;;;14.10;100.00
30463;BME280;17256;43.618;25.336;2023-05-08T03:59:27;100586.97;;;12.57;100.00
30463;BME280;17256;43.618;25.336;2023-05-08T04:12:30;100840.41;;;14.35;100.00
30463;BME280;17256;43.618;25.336;2023-05-08T04:15:09;100414.56;;;11.77;100.00
30463;BME280;17256;43.618;25.336;2023-05-08T04:17:42;100548.19;;;12.65;100.00
30463;BME280;17256;43.618;25.336;2023-05-08T04:20:15;100438.09;;;11.99;100.00
30463;BME280;17256;43.618;25.336;2023-05-08T04:22:46;100564.88;;;12.90;100.00
30463;BME280;17256;43.618;25.336;2023-05-08T04:25:38;100635.66;;;13.22;100.00
30463;BME280;17256;43.618;25.336;2023-05-08T04:39:23;100606.44;;;12.95;100.00
30463;BME280;17256;43.618;25.336;2023-05-08T04:42:03;100665.13;;;13.29;100.00
30463;BME280;17256;43.618;25.336;2023-05-08T04:45:04;100598.78;;;12.97;100.00
30463;BME280;17256;43.618;25.336;2023-05-08T05:47:03;100626.94;;;14.22;100.00
30463;BME280;17256;43.618;25.336;2023-05-08T06:21:50;100852.72;;;16.40;97.93
30463;BME280;17256;43.618;25.336;2023-05-08T06:30:05;100849.28;;;16.93;92.62
30463;BME280;17256;43.618;25.336;2023-05-08T06:34:04;100834.28;;;17.24;91.16
30463;BME280;17256;43.618;25.336;2023-05-08T06:36:57;100633.13;;;16.08;90.87
30463;BME280;17256;43.618;25.336;2023-05-08T06:40:42;100594.81;;;16.05;85.78
30463;BME280;17256;43.618;25.336;2023-05-08T06:43:54;100734.34;;;17.01;84.16
30463;BME280;17256;43.618;25.336;2023-05-08T06:46:21;100410.97;;;15.04;81.77
30463;BME280;17256;43.618;25.336;2023-05-08T06:48:48;100846.81;;;17.80;80.78
30463;BME280;17256;43.618;25.336;2023-05-08T06:51:15;100742.22;;;17.27;80.08
30463;BME280;17256;43.618;25.336;2023-05-08T06:53:49;100873.88;;;18.08;80.94
30463;BME280;17256;43.618;25.336;2023-05-08T06:56:22;100593.09;;;17.11;78.81
30463;BME280;17256;43.618;25.336;2023-05-08T06:59:00;100459.31;;;16.97;74.28
30463;BME280;17256;43.618;25.336;2023-05-08T07:01:57;100531.84;;;17.41;72.11
30463;BME280;17256;43.618;25.336;2023-05-08T07:05:01;100827.91;;;19.88;66.69
30463;BME280;17256;43.618;25.336;2023-05-08T07:16:33;100781.63;;;19.20;65.30
30463;BME280;17256;43.618;25.336;2023-05-08T07:18:59;100761.78;;;19.33;64.91
30463;BME280;17256;43.618;25.336;2023-05-08T07:21:25;100585.66;;;17.92;65.82
30463;BME280;17256;43.618;25.336;2023-05-08T07:23:51;100579.16;;;18.31;66.88
30463;BME280;17256;43.618;25.336;2023-05-08T07:26:18;100611.09;;;18.29;68.03
30463;BME280;17256;43.618;25.336;2023-05-08T07:28:44;100429.69;;;16.86;70.56
30463;BME280;17256;43.618;25.336;2023-05-08T07:31:10;100783.66;;;19.75;69.42
30463;BME280;17256;43.618;25.336;2023-05-08T07:33:37;100570.38;;;18.68;65.72
30463;BME280;17256;43.618;25.336;2023-05-08T07:36:03;100631.16;;;18.76;65.95
30463;BME280;17256;43.618;25.336;2023-05-08T07:38:29;100712.97;;;19.59;65.08
30463;BME280;17256;43.618;25.336;2023-05-08T07:40:54;100593.25;;;19.47;63.58
30463;BME280;17256;43.618;25.336;2023-05-08T07:43:22;100500.84;;;18.68;63.65
30463;BME280;17256;43.618;25.336;2023-05-08T07:45:48;100682.44;;;20.35;63.44
30463;BME280;17256;43.618;25.336;2023-05-08T07:48:14;100737.19;;;20.63;63.37
30463;BME280;17256;43.618;25.336;2023-05-08T07:50:41;100811.69;;;21.16;61.43
30463;BME280;17256;43.618;25.336;2023-05-08T07:53:06;100711.63;;;20.05;60.90
30463;BME280;17256;43.618;25.336;2023-05-08T07:55:32;100643.91;;;19.44;62.36
30463;BME280;17256;43.618;25.336;2023-05-08T07:57:58;100634.91;;;19.37;59.98
30463;BME280;17256;43.618;25.336;2023-05-08T08:00:24;100560.03;;;19.41;59.00
30463;BME280;17256;43.618;25.336;2023-05-08T08:32:04;100621.47;;;21.49;55.40
30463;BME280;17256;43.618;25.336;2023-05-08T08:59:38;100638.44;;;20.69;52.96
30463;BME280;17256;43.618;25.336;2023-05-08T09:10:46;100802.13;;;22.60;52.04
30463;BME280;17256;43.618;25.336;2023-05-08T09:13:12;100677.06;;;22.03;53.94
30463;BME280;17256;43.618;25.336;2023-05-08T09:15:38;100695.44;;;22.52;51.90
30463;BME280;17256;43.618;25.336;2023-05-08T09:18:04;100686.50;;;22.60;50.86
30463;BME280;17256;43.618;25.336;2023-05-08T09:20:34;100601.56;;;22.03;51.37
30463;BME280;17256;43.618;25.336;2023-05-08T09:23:05;100421.53;;;20.17;52.33
30463;BME280;17256;43.618;25.336;2023-05-08T09:25:46;100700.91;;;22.06;52.41
30463;BME280;17256;43.618;25.336;2023-05-08T09:28:20;100885.69;;;22.99;53.78
30463;BME280;17256;43.618;25.336;2023-05-08T09:30:56;100878.75;;;23.07;53.85
30463;BME280;17256;43.618;25.336;2023-05-08T09:33:26;100709.38;;;21.79;54.40
30463;BME280;17256;43.618;25.336;2023-05-08T09:35:53;100623.16;;;20.76;54.39
30463;BME280;17256;43.618;25.336;2023-05-08T09:38:50;100900.69;;;22.72;54.93
30463;BME280;17256;43.618;25.336;2023-05-08T09:41:55;100923.66;;;22.75;53.53
30463;BME280;17256;43.618;25.336;2023-05-08T09:44:51;100494.13;;;20.00;54.42
30463;BME280;17256;43.618;25.336;2023-05-08T09:47:24;100791.34;;;21.47;55.49
30463;BME280;17256;43.618;25.336;2023-05-08T09:55:46;100627.34;;;20.47;57.38
30463;BME280;17256;43.618;25.336;2023-05-08T09:58:14;100834.81;;;21.65;58.21
30463;BME280;17256;43.618;25.336;2023-05-08T10:07:34;100735.50;;;20.40;60.99
30463;BME280;17256;43.618;25.336;2023-05-08T10:10:31;100478.50;;;19.01;61.07
30463;BME280;17256;43.618;25.336;2023-05-08T10:19:23;100615.63;;;19.96;61.08
30463;BME280;17256;43.618;25.336;2023-05-08T10:21:54;100548.66;;;19.03;62.15
30463;BME280;17256;43.618;25.336;2023-05-08T10:24:26;100473.84;;;18.52;62.65
30463;BME280;17256;43.618;25.336;2023-05-08T10:29:55;100506.63;;;18.50;63.42
30463;BME280;17256;43.618;25.336;2023-05-08T10:32:22;100913.66;;;21.40;62.47
30463;BME280;17256;43.618;25.336;2023-05-08T10:38:37;100917.28;;;21.19;64.50
30463;BME280;17256;43.618;25.336;2023-05-08T10:41:11;100525.09;;;18.22;64.51
30463;BME280;17256;43.618;25.336;2023-05-08T10:50:35;100926.66;;;19.92;68.53
30463;BME280;17256;43.618;25.336;2023-05-08T11:01:47;100805.78;;;19.14;67.80
30463;BME280;17256;43.618;25.336;2023-05-08T11:05:21;100615.16;;;17.93;67.72
30463;BME280;17256;43.618;25.336;2023-05-08T11:12:25;100953.72;;;20.30;66.61
30463;BME280;17256;43.618;25.336;2023-05-08T11:15:40;100960.09;;;20.25;66.76
30463;BME280;17256;43.618;25.336;2023-05-08T11:25:18;100966.91;;;19.39;68.95
30463;BME280;17256;43.618;25.336;2023-05-08T11:48:43;100552.25;;;15.39;77.41
30463;BME280;17256;43.618;25.336;2023-05-08T11:51:57;100750.56;;;16.74;77.92
30463;BME280;17256;43.618;25.336;2023-05-08T11:58:14;100563.34;;;15.39;77.55
30463;BME280;17256;43.618;25.336;2023-05-08T12:00:41;100722.56;;;16.15;77.66
30463;BME280;17256;43.618;25.336;2023-05-08T12:03:14;100774.56;;;16.31;79.24
30463;BME280;17256;43.618;25.336;2023-05-08T12:05:46;100532.50;;;14.63;80.84
30463;BME280;17256;43.618;25.336;2023-05-08T12:08:17;100699.81;;;15.58;83.43
30463;BME280;17256;43.618;25.336;2023-05-08T12:10:56;100812.78;;;16.11;85.65
30463;BME280;17256;43.618;25.336;2023-05-08T12:13:51;100960.06;;;17.06;89.08
30463;BME280;17256;43.618;25.336;2023-05-08T12:16:22;100692.09;;;15.42;93.64
30463;BME280;17256;43.618;25.336;2023-05-08T12:22:20;100758.13;;;15.82;100.00
30463;BME280;17256;43.618;25.336;2023-05-08T12:24:46;100644.28;;;15.10;100.00
30463;BME280;17256;43.618;25.336;2023-05-08T12:27:36;100948.78;;;16.89;100.00
30463;BME280;17256;43.618;25.336;2023-05-08T12:30:07;100583.09;;;14.63;100.00
30463;BME280;17256;43.618;25.336;2023-05-08T12:32:36;100778.28;;;15.71;100.00
30463;BME280;17256;43.618;25.336;2023-05-08T12:35:07;100547.44;;;13.99;100.00
30463;BME280;17256;43.618;25.336;2023-05-08T12:37:34;100691.00;;;14.75;100.00
30463;BME280;17256;43.618;25.336;2023-05-08T12:40:00;100698.22;;;14.76;100.00
30463;BME280;17256;43.618;25.336;2023-05-08T12:42:47;100723.84;;;14.58;100.00
30463;BME280;17256;43.618;25.336;2023-05-08T12:45:36;100974.03;;;15.95;100.00
30463;BME280;17256;43.618;25.336;2023-05-08T12:48:05;100832.13;;;14.87;100.00
30463;BME280;17256;43.618;25.336;2023-05-08T12:50:39;100614.00;;;13.39;100.00
30463;BME280;17256;43.618;25.336;2023-05-08T12:53:09;100741.88;;;14.23;100.00
30463;BME280;17256;43.618;25.336;2023-05-08T13:15:07;100907.56;;;14.36;100.00
30463;BME280;17256;43.618;25.336;2023-05-08T13:18:12;100962.97;;;14.81;100.00
30463;BME280;17256;43.618;25.336;2023-05-08T13:20:45;100956.84;;;14.72;100.00
30463;BME280;17256;43.618;25.336;2023-05-08T13:26:03;100567.88;;;12.09;100.00
30463;BME280;17256;43.618;25.336;2023-05-08T13:28:30;100780.34;;;13.20;100.00
30463;BME280;17256;43.618;25.336;2023-05-08T13:30:57;100636.94;;;12.34;100.00
30463;BME280;17256;43.618;25.336;2023-05-08T13:33:45;100972.00;;;14.50;100.00
30463;BME280;17256;43.618;25.336;2023-05-08T14:40:59;100757.13;;;12.48;100.00
30463;BME280;17256;43.618;25.336;2023-05-08T14:44:20;101011.75;;;14.02;100.00
30463;BME280;17256;43.618;25.336;2023-05-08T14:47:58;101012.81;;;14.01;100.00
30463;BME280;17256;43.618;25.336;2023-05-08T14:57:01;100757.03;;;12.15;100.00
30463;BME280;17256;43.618;25.336;2023-05-08T14:59:28;100580.13;;;11.39;100.00
30463;BME280;17256;43.618;25.336;2023-05-08T15:02:08;101021.94;;;14.08;100.00
30463;BME280;17256;43.618;25.336;2023-05-08T15:04:38;100757.09;;;12.42;100.00
30463;BME280;17256;43.618;25.336;2023-05-08T15:07:09;100889.41;;;13.22;100.00
30463;BME280;17256;43.618;25.336;2023-05-08T15:09:38;100595.22;;;11.50;100.00
30463;BME280;17256;43.618;25.336;2023-05-08T15:12:31;100780.19;;;12.41;100.00
30463;BME280;17256;43.618;25.336;2023-05-08T15:15:09;100836.88;;;12.76;100.00
30463;BME280;17256;43.618;25.336;2023-05-08T15:17:43;100613.97;;;11.33;100.00
30463;BME280;17256;43.618;25.336;2023-05-08T15:20:41;100942.88;;;13.28;100.00
30463;BME280;17256;43.618;25.336;2023-05-08T15:23:07;100841.53;;;12.76;100.00
30463;BME280;17256;43.618;25.336;2023-05-08T15:25:33;100820.13;;;12.65;100.00
30463;BME280;17256;43.618;25.336;2023-05-08T15:27:58;100812.22;;;12.48;100.00
30463;BME280;17256;43.618;25.336;2023-05-08T15:30:24;100763.59;;;12.21;100.00
30463;BME280;17256;43.618;25.336;2023-05-08T15:32:50;100865.13;;;12.91;100.00
30463;BME280;17256;43.618;25.336;2023-05-08T15:35:17;100785.25;;;12.37;100.00
30463;BME280;17256;43.618;25.336;2023-05-08T15:37:43;101052.09;;;13.90;100.00
30463;BME280;17256;43.618;25.336;2023-05-08T15:40:16;100761.28;;;12.24;100.00
30463;BME280;17256;43.618;25.336;2023-05-08T15:48:47;100648.50;;;11.42;100.00
30463;BME280;17256;43.618;25.336;2023-05-08T15:56:55;100786.06;;;12.24;100.00
30463;BME280;17256;43.618;25.336;2023-05-08T16:05:01;101065.22;;;13.75;100.00
30463;BME280;17256;43.618;25.336;2023-05-08T16:07:57;100692.84;;;11.32;100.00
30463;BME280;17256;43.618;25.336;2023-05-08T16:29:39;100998.25;;;12.85;100.00
30463;BME280;17256;43.618;25.336;2023-05-08T16:50:12;101112.00;;;13.35;100.00
30463;BME280;17256;43.618;25.336;2023-05-08T16:52:40;100862.25;;;11.55;100.00
30463;BME280;17256;43.618;25.336;2023-05-08T16:55:08;100864.63;;;11.64;100.00
30463;BME280;17256;43.618;25.336;2023-05-08T17:31:03;100985.13;;;11.69;100.00
30463;BME280;17256;43.618;25.336;2023-05-08T17:33:35;101173.91;;;12.98;100.00
30463;BME280;17256;43.618;25.336;2023-05-08T17:36:18;100961.91;;;11.57;100.00
30463;BME280;17256;43.618;25.336;2023-05-08T17:38:49;100841.47;;;11.03;100.00
30463;BME280;17256;43.618;25.336;2023-05-08T17:41:17;100968.28;;;11.79;100.00
30463;BME280;17256;43.618;25.336;2023-05-08T17:43:48;100904.50;;;11.47;100.00
30463;BME280;17256;43.618;25.336;2023-05-08T17:46:54;101005.16;;;11.84;100.00
30463;BME280;17256;43.618;25.336;2023-05-08T17:49:29;101170.97;;;13.00;100.00
30463;BME280;17256;43.618;25.336;2023-05-08T17:51:56;101180.13;;;13.07;100.00
30463;BME280;17256;43.618;25.336;2023-05-08T17:54:23;100946.81;;;11.46;100.00
30463;BME280;17256;43.618;25.336;2023-05-08T17:56:51;100985.78;;;11.71;100.00
30463;BME280;17256;43.618;25.336;2023-05-08T17:59:18;100800.03;;;10.62;100.00
30463;BME280;17256;43.618;25.336;2023-05-08T18:01:46;100966.97;;;11.75;100.00
30463;BME280;17256;43.618;25.336;2023-05-08T18:04:12;100778.25;;;10.39;100.00
30463;BME280;17256;43.618;25.336;2023-05-08T18:06:37;101039.16;;;12.19;100.00
30463;BME280;17256;43.618;25.336;2023-05-08T18:09:03;100885.84;;;11.00;100.00
30463;BME280;17256;43.618;25.336;2023-05-08T18:11:29;100991.13;;;11.58;100.00
30463;BME280;17256;43.618;25.336;2023-05-08T18:13:55;101182.19;;;12.70;100.00
30463;BME280;17256;43.618;25.336;2023-05-08T18:16:21;101034.97;;;11.81;100.00
30463;BME280;17256;43.618;25.336;2023-05-08T18:18:47;100922.06;;;11.25;100.00
30463;BME280;17256;43.618;25.336;2023-05-08T18:21:13;101162.56;;;12.58;100.00
30463;BME280;17256;43.618;25.336;2023-05-08T18:23:39;101056.75;;;11.97;100.00
30463;BME280;17256;43.618;25.336;2023-05-08T18:26:05;100964.22;;;11.32;100.00
30463;BME280;17256;43.618;25.336;2023-05-08T18:28:31;100886.09;;;10.84;100.00
30463;BME280;17256;43.618;25.336;2023-05-08T18:30:57;101027.53;;;11.60;100.00
30463;BME280;17256;43.618;25.336;2023-05-08T18:33:23;100906.44;;;10.89;100.00
30463;BME280;17256;43.618;25.336;2023-05-08T18:35:49;101049.84;;;11.65;100.00
30463;BME280;17256;43.618;25.336;2023-05-08T18:38:15;101063.59;;;11.65;100.00
30463;BME280;17256;43.618;25.336;2023-05-08T18:40:42;101043.84;;;11.61;100.00
30463;BME280;17256;43.618;25.336;2023-05-08T18:43:08;101045.00;;;11.67;100.00
30463;BME280;17256;43.618;25.336;2023-05-08T18:45:37;101204.63;;;12.67;100.00
30463;BME280;17256;43.618;25.336;2023-05-08T18:48:03;101043.09;;;11.67;100.00
30463;BME280;17256;43.618;25.336;2023-05-08T18:50:29;101232.91;;;12.76;100.00
30463;BME280;17256;43.618;25.336;2023-05-08T18:52:54;101271.66;;;13.17;100.00
30463;BME280;17256;43.618;25.336;2023-05-08T18:55:20;101090.69;;;12.04;100.00
30463;BME280;17256;43.618;25.336;2023-05-08T18:57:46;101042.25;;;11.67;100.00
30463;BME280;17256;43.618;25.336;2023-05-08T19:00:13;101147.97;;;12.37;100.00
30463;BME280;17256;43.618;25.336;2023-05-08T19:02:40;100929.91;;;10.70;100.00
30463;BME280;17256;43.618;25.336;2023-05-08T19:05:06;101210.75;;;12.41;100.00
30463;BME280;17256;43.618;25.336;2023-05-08T19:07:32;101167.63;;;12.33;100.00
30463;BME280;17256;43.618;25.336;2023-05-08T19:09:57;100961.03;;;10.92;100.00
30463;BME280;17256;43.618;25.336;2023-05-08T19:12:23;100799.50;;;10.01;100.00
30463;BME280;17256;43.618;25.336;2023-05-08T19:14:49;101037.31;;;11.41;100.00
30463;BME280;17256;43.618;25.336;2023-05-08T19:17:15;101249.59;;;12.68;100.00
30463;BME280;17256;43.618;25.336;2023-05-08T19:19:48;101009.81;;;11.41;100.00
30463;BME280;17256;43.618;25.336;2023-05-08T19:22:16;101199.34;;;12.44;100.00
30463;BME280;17256;43.618;25.336;2023-05-08T19:24:42;101276.09;;;12.69;100.00
30463;BME280;17256;43.618;25.336;2023-05-08T19:27:07;101130.28;;;12.03;100.00
30463;BME280;17256;43.618;25.336;2023-05-08T19:29:33;100976.16;;;11.03;100.00
30463;BME280;17256;43.618;25.336;2023-05-08T19:31:59;100853.34;;;10.31;100.00
30463;BME280;17256;43.618;25.336;2023-05-08T19:34:25;101193.38;;;12.19;100.00
30463;BME280;17256;43.618;25.336;2023-05-08T19:36:52;100994.19;;;10.91;100.00
30463;BME280;17256;43.618;25.336;2023-05-08T19:39:17;101006.03;;;10.91;100.00
30463;BME280;17256;43.618;25.336;2023-05-08T19:41:45;100928.91;;;10.42;100.00
30463;BME280;17256;43.618;25.336;2023-05-08T19:44:12;101015.34;;;11.12;100.00
30463;BME280;17256;43.618;25.336;2023-05-08T19:46:38;100947.22;;;10.71;100.00
30463;BME280;17256;43.618;25.336;2023-05-08T19:49:04;101122.50;;;11.70;100.00
30463;BME280;17256;43.618;25.336;2023-05-08T19:51:30;101001.06;;;11.01;100.00
30463;BME280;17256;43.618;25.336;2023-05-08T20:00:00;101274.69;;;12.79;100.00
30463;BME280;17256;43.618;25.336;2023-05-08T20:02:26;101076.66;;;11.63;100.00
30463;BME280;17256;43.618;25.336;2023-05-08T20:04:55;101061.06;;;11.49;100.00
30463;BME280;17256;43.618;25.336;2023-05-08T20:07:21;101292.53;;;12.62;100.00
30463;BME280;17256;43.618;25.336;2023-05-08T20:10:03;101064.13;;;11.39;100.00
30463;BME280;17256;43.618;25.336;2023-05-08T20:12:51;100776.53;;;9.72;100.00
30463;BME280;17256;43.618;25.336;2023-05-08T20:15:18;100933.03;;;10.53;100.00
30463;BME280;17256;43.618;25.336;2023-05-08T20:17:45;101021.44;;;11.07;100.00
30463;BME280;17256;43.618;25.336;2023-05-08T20:20:17;101135.59;;;11.54;100.00
30463;BME280;17256;43.618;25.336;2023-05-08T20:22:48;101020.91;;;10.82;100.00
30463;BME280;17256;43.618;25.336;2023-05-08T20:25:17;101181.66;;;11.96;100.00
30463;BME280;17256;43.618;25.336;2023-05-08T20:27:44;101126.38;;;11.61;100.00
30463;BME280;17256;43.618;25.336;2023-05-08T20:30:10;101165.06;;;11.89;100.00
30463;BME280;17256;43.618;25.336;2023-05-08T20:32:36;100981.25;;;10.70;100.00
30463;BME280;17256;43.618;25.336;2023-05-08T20:37:52;100837.53;;;9.74;100.00
30463;BME280;17256;43.618;25.336;2023-05-08T20:40:17;100927.56;;;10.23;100.00
30463;BME280;17256;43.618;25.336;2023-05-08T20:42:44;101180.72;;;11.74;100.00
30463;BME280;17256;43.618;25.336;2023-05-08T20:45:10;100963.91;;;10.55;100.00
30463;BME280;17256;43.618;25.336;2023-05-08T20:47:36;100955.50;;;10.27;100.00
30463;BME280;17256;43.618;25.336;2023-05-08T20:50:02;101134.44;;;11.63;100.00
30463;BME280;17256;43.618;25.336;2023-05-08T20:52:28;100788.53;;;9.42;100.00
30463;BME280;17256;43.618;25.336;2023-05-08T20:54:57;101005.84;;;10.78;100.00
30463;BME280;17256;43.618;25.336;2023-05-08T20:57:23;101098.94;;;11.32;100.00
30463;BME280;17256;43.618;25.336;2023-05-08T20:59:49;101019.28;;;10.88;100.00
30463;BME280;17256;43.618;25.336;2023-05-08T21:07:53;101146.41;;;11.55;100.00
30463;BME280;17256;43.618;25.336;2023-05-08T21:10:27;100913.78;;;10.08;100.00
30463;BME280;17256;43.618;25.336;2023-05-08T21:12:55;101035.59;;;10.74;100.00
30463;BME280;17256;43.618;25.336;2023-05-08T21:15:21;101132.78;;;11.32;100.00
30463;BME280;17256;43.618;25.336;2023-05-08T21:17:47;100889.75;;;9.81;100.00
30463;BME280;17256;43.618;25.336;2023-05-08T21:20:14;100919.38;;;10.00;100.00
30463;BME280;17256;43.618;25.336;2023-05-08T21:22:40;100812.47;;;9.48;100.00
30463;BME280;17256;43.618;25.336;2023-05-08T21:25:16;100820.31;;;9.51;100.00
30463;BME280;17256;43.618;25.336;2023-05-08T21:27:42;101139.34;;;11.46;100.00
30463;BME280;17256;43.618;25.336;2023-05-08T21:30:08;100965.91;;;10.31;100.00
30463;BME280;17256;43.618;25.336;2023-05-08T21:32:40;101015.16;;;10.47;100.00
30463;BME280;17256;43.618;25.336;2023-05-08T21:35:07;100949.66;;;10.07;100.00
30463;BME280;17256;43.618;25.336;2023-05-08T21:37:33;101115.09;;;11.20;100.00
30463;BME280;17256;43.618;25.336;2023-05-08T21:39:59;101277.03;;;12.18;100.00
30463;BME280;17256;43.618;25.336;2023-05-08T21:42:26;101148.91;;;11.50;100.00
30463;BME280;17256;43.618;25.336;2023-05-08T21:44:55;101113.56;;;11.18;100.00
30463;BME280;17256;43.618;25.336;2023-05-08T21:47:21;100947.50;;;10.17;100.00
30463;BME280;17256;43.618;25.336;2023-05-08T21:49:47;100971.47;;;10.23;100.00
30463;BME280;17256;43.618;25.336;2023-05-08T21:52:13;101208.53;;;11.64;100.00
30463;BME280;17256;43.618;25.336;2023-05-08T21:54:39;100966.13;;;10.07;100.00
30463;BME280;17256;43.618;25.336;2023-05-08T21:57:05;100950.03;;;10.04;100.00
30463;BME280;17256;43.618;25.336;2023-05-08T21:59:32;100783.53;;;8.93;100.00
30463;BME280;17256;43.618;25.336;2023-05-08T22:01:58;100917.00;;;9.82;100.00
30463;BME280;17256;43.618;25.336;2023-05-08T22:04:24;101081.38;;;10.67;100.00
30463;BME280;17256;43.618;25.336;2023-05-08T22:06:49;101107.97;;;10.82;100.00
30463;BME280;17256;43.618;25.336;2023-05-08T22:09:17;101015.75;;;9.82;100.00
30463;BME280;17256;43.618;25.336;2023-05-08T22:11:42;100970.16;;;9.81;100.00
30463;BME280;17256;43.618;25.336;2023-05-08T22:14:08;101287.00;;;11.60;100.00
30463;BME280;17256;43.618;25.336;2023-05-08T22:16:34;101110.28;;;10.40;100.00
30463;BME280;17256;43.618;25.336;2023-05-08T22:19:00;100992.66;;;9.77;100.00
30463;BME280;17256;43.618;25.336;2023-05-08T22:21:26;100994.47;;;9.84;100.00
30463;BME280;17256;43.618;25.336;2023-05-08T22:23:55;101008.91;;;9.78;100.00
30463;BME280;17256;43.618;25.336;2023-05-08T22:26:21;101109.59;;;10.38;100.00
30463;BME280;17256;43.618;25.336;2023-05-08T22:28:48;100797.91;;;8.41;100.00
30463;BME280;17256;43.618;25.336;2023-05-08T22:31:13;101071.16;;;10.01;100.00
30463;BME280;17256;43.618;25.336;2023-05-08T22:33:39;100967.06;;;9.39;100.00
30463;BME280;17256;43.618;25.336;2023-05-08T22:36:05;101014.59;;;9.54;100.00
30463;BME280;17256;43.618;25.336;2023-05-08T22:38:31;101218.63;;;10.75;100.00
30463;BME280;17256;43.618;25.336;2023-05-08T22:41:01;101120.59;;;10.15;100.00
30463;BME280;17256;43.618;25.336;2023-05-08T22:43:29;101148.22;;;10.22;100.00
30463;BME280;17256;43.618;25.336;2023-05-08T22:45:55;100937.25;;;8.90;100.00